createdAt,value
2023-02-17T00:01:31.310Z,96.61
2023-02-17T00:04:34.596Z,97.15
2023-02-17T00:07:37.548Z,97.50
2023-02-17T00:10:40.415Z,97.79
2023-02-17T00:13:43.545Z,97.78
2023-02-17T00:16:46.366Z,98.35
2023-02-17T00:19:49.813Z,98.20
2023-02-17T00:22:52.695Z,97.94
2023-02-17T00:25:55.535Z,98.46
2023-02-17T00:28:59.342Z,98.03
2023-02-17T00:32:02.519Z,97.84
2023-02-17T00:35:05.877Z,98.02
2023-02-17T00:38:08.743Z,98.38
2023-02-17T00:41:11.715Z,98.60
2023-02-17T00:44:20.442Z,98.30
2023-02-17T00:47:23.257Z,98.33
2023-02-17T00:50:26.192Z,97.07
2023-02-17T00:53:29.083Z,96.67
2023-02-17T00:56:31.945Z,95.74
2023-02-17T00:59:35.436Z,95.97
2023-02-17T01:02:38.262Z,96.45
2023-02-17T01:05:43.110Z,95.60
2023-02-17T01:08:46.112Z,95.22
2023-02-17T01:11:49.249Z,95.71
2023-02-17T01:14:52.216Z,95.70
2023-02-17T01:17:55.066Z,95.36
2023-02-17T01:20:58.179Z,95.42
2023-02-17T01:24:05.130Z,95.52
2023-02-17T01:27:08.132Z,95.36
2023-02-17T01:30:11.496Z,95.29
2023-02-17T01:33:14.599Z,95.56
2023-02-17T01:36:19.403Z,95.46
2023-02-17T01:39:22.313Z,95.54
2023-02-17T01:42:26.577Z,95.31
2023-02-17T01:45:34.924Z,96.74
2023-02-17T01:48:41.593Z,96.62
2023-02-17T01:51:47.151Z,97.02
2023-02-17T01:54:57.334Z,97.65
2023-02-17T01:58:03.577Z,97.50
2023-02-17T02:01:07.408Z,97.32
2023-02-17T02:04:12.000Z,96.95
2023-02-17T02:07:23.531Z,97.03
2023-02-17T02:10:26.476Z,96.89
2023-02-17T02:13:29.535Z,96.93
2023-02-17T02:16:44.134Z,96.72
2023-02-17T02:20:14.088Z,96.98
2023-02-17T02:23:34.733Z,96.75
2023-02-17T02:27:02.057Z,96.67
2023-02-17T02:30:48.870Z,96.83
2023-02-17T02:34:30.700Z,96.75
2023-02-17T02:37:38.599Z,97.02
2023-02-17T02:40:50.200Z,96.77
2023-02-17T02:43:53.332Z,96.56
2023-02-17T02:47:01.334Z,96.36
2023-02-17T02:50:05.492Z,96.47
2023-02-17T02:53:17.713Z,96.27
2023-02-17T02:56:27.337Z,96.14
2023-02-17T02:59:35.294Z,95.97
2023-02-17T03:03:05.150Z,96.13
2023-02-17T03:06:14.929Z,96.14
2023-02-17T03:09:29.081Z,96.37
2023-02-17T03:12:32.234Z,96.34
2023-02-17T03:15:35.642Z,96.04
2023-02-17T03:18:38.541Z,96.33
2023-02-17T03:21:51.426Z,95.67
2023-02-17T03:24:54.239Z,94.37
2023-02-17T03:27:57.437Z,94.39
2023-02-17T03:31:01.068Z,94.59
2023-02-17T03:34:04.497Z,94.58
2023-02-17T03:37:07.523Z,94.78
2023-02-17T03:40:10.761Z,95.68
2023-02-17T03:43:17.962Z,96.21
2023-02-17T03:46:21.492Z,95.43
2023-02-17T03:49:24.516Z,95.50
2023-02-17T03:52:27.314Z,95.95
2023-02-17T03:55:30.115Z,95.58
2023-02-17T03:58:33.538Z,95.68
2023-02-17T04:01:36.443Z,95.96
2023-02-17T04:04:39.355Z,95.32
2023-02-17T04:07:42.214Z,95.43
2023-02-17T04:10:45.317Z,94.74
2023-02-17T04:13:48.208Z,95.52
2023-02-17T04:16:51.020Z,95.27
2023-02-17T04:19:53.911Z,96.37
2023-02-17T04:22:56.782Z,96.67
2023-02-17T04:25:59.664Z,97.20
2023-02-17T04:29:05.239Z,97.05
2023-02-17T04:32:08.227Z,96.93
2023-02-17T04:35:11.228Z,97.29
2023-02-17T04:38:14.313Z,97.52
2023-02-17T04:41:17.205Z,97.64
2023-02-17T04:44:20.050Z,98.61
2023-02-17T04:47:23.145Z,99.93
2023-02-17T04:50:26.301Z,99.78
2023-02-17T04:53:29.064Z,99.38
2023-02-17T04:56:31.839Z,99.48
2023-02-17T04:59:34.881Z,99.31
2023-02-17T05:02:37.813Z,99.75
2023-02-17T05:05:40.604Z,100.00
2023-02-17T05:08:43.474Z,100.00
2023-02-17T05:11:46.287Z,99.81
2023-02-17T05:14:49.136Z,99.68
2023-02-17T05:17:52.011Z,99.52
2023-02-17T05:20:54.973Z,99.82
2023-02-17T05:23:57.842Z,99.37
2023-02-17T05:27:00.669Z,99.30
2023-02-17T05:30:04.091Z,98.98
2023-02-17T05:33:06.988Z,98.93
2023-02-17T05:36:12.113Z,98.96
2023-02-17T05:39:15.001Z,98.71
2023-02-17T05:42:17.848Z,98.56
2023-02-17T05:45:20.776Z,97.69
2023-02-17T05:48:23.553Z,97.92
2023-02-17T05:51:26.448Z,97.60
2023-02-17T05:54:29.254Z,97.45
2023-02-17T05:57:32.317Z,97.47
2023-02-17T06:00:35.357Z,98.10
2023-02-17T06:03:38.789Z,98.43
2023-02-17T06:06:41.786Z,98.43
2023-02-17T06:09:47.135Z,97.53
2023-02-17T06:12:50.403Z,95.55
2023-02-17T06:15:53.339Z,94.26
2023-02-17T06:18:56.201Z,93.71
2023-02-17T06:21:59.620Z,92.34
2023-02-17T06:25:02.587Z,92.45
2023-02-17T06:28:05.743Z,92.00
2023-02-17T06:31:08.578Z,90.41
2023-02-17T06:34:12.244Z,89.79
2023-02-17T06:37:15.204Z,89.38
2023-02-17T06:40:18.289Z,88.50
2023-02-17T06:43:21.139Z,88.44
2023-02-17T06:46:23.948Z,87.76
2023-02-17T06:50:26.324Z,87.81
2023-02-17T06:57:51.596Z,86.32
2023-02-17T07:00:54.597Z,85.74
2023-02-17T07:03:58.124Z,84.69
2023-02-17T07:07:02.174Z,83.48
2023-02-17T07:10:05.727Z,75.40
2023-02-17T07:13:10.209Z,72.69
2023-02-17T07:16:14.443Z,68.28
2023-02-17T07:19:17.464Z,63.72
2023-02-17T07:22:21.739Z,57.46
2023-02-17T07:25:24.594Z,55.63
2023-02-17T07:28:27.472Z,51.90
2023-02-17T07:31:31.350Z,53.74
2023-02-17T07:34:35.051Z,57.33
2023-02-17T07:37:38.029Z,60.32
2023-02-17T07:40:41.247Z,64.20
2023-02-17T07:43:45.118Z,66.29
2023-02-17T07:46:48.607Z,66.50
2023-02-17T07:49:51.658Z,66.38
2023-02-17T07:52:54.515Z,67.57
2023-02-17T07:55:57.496Z,67.74
2023-02-17T07:59:00.376Z,66.66
2023-02-17T08:02:03.917Z,61.71
2023-02-17T08:05:07.070Z,57.07
2023-02-17T08:08:28.346Z,49.85
2023-02-17T08:11:52.300Z,45.16
2023-02-17T08:14:58.307Z,41.96
2023-02-17T08:18:02.014Z,40.57
2023-02-17T08:21:05.529Z,40.33
2023-02-17T08:24:08.735Z,38.41
2023-02-17T08:27:12.145Z,37.55
2023-02-17T08:30:16.263Z,35.70
2023-02-17T08:33:20.568Z,36.15
2023-02-17T08:36:24.982Z,35.92
2023-02-17T08:39:28.551Z,37.15
2023-02-17T08:42:32.823Z,38.69
2023-02-17T08:45:37.252Z,36.88
2023-02-17T08:48:41.162Z,38.33
2023-02-17T08:51:45.277Z,37.19
2023-02-17T08:54:50.008Z,36.01
2023-02-17T08:57:54.906Z,36.16
2023-02-17T09:00:58.375Z,34.92
2023-02-17T09:04:26.170Z,35.37
2023-02-17T09:07:33.233Z,33.70
2023-02-17T09:10:36.273Z,33.66
2023-02-17T09:13:45.075Z,33.32
2023-02-17T09:16:50.807Z,33.45
2023-02-17T09:19:54.905Z,33.25
2023-02-17T09:23:00.406Z,33.07
2023-02-17T09:26:07.198Z,34.58
2023-02-17T09:29:10.740Z,34.61
2023-02-17T09:32:13.978Z,33.57
2023-02-17T09:35:18.837Z,33.29
2023-02-17T09:38:21.880Z,31.89
2023-02-17T09:41:32.510Z,32.83
2023-02-17T09:44:44.987Z,32.61
2023-02-17T09:47:55.423Z,29.39
2023-02-17T09:51:07.053Z,29.64
2023-02-17T09:54:22.814Z,30.15
2023-02-17T09:57:29.762Z,28.06
2023-02-17T10:00:45.771Z,30.02
2023-02-17T10:03:52.003Z,29.58
2023-02-17T10:07:02.885Z,29.87
2023-02-17T10:10:14.769Z,28.22
2023-02-17T10:13:23.107Z,28.18
2023-02-17T10:16:32.472Z,26.72
2023-02-17T10:19:45.289Z,26.84
2023-02-17T10:22:54.937Z,25.78
2023-02-17T10:26:16.557Z,27.60
2023-02-17T10:29:49.629Z,26.50
2023-02-17T10:32:52.752Z,25.91
2023-02-17T10:36:34.200Z,24.67
2023-02-17T10:39:55.285Z,24.61
2023-02-17T10:43:07.673Z,24.35
2023-02-17T10:46:15.635Z,24.86
2023-02-17T10:49:31.570Z,23.98
2023-02-17T10:52:39.649Z,25.81
2023-02-17T10:55:50.794Z,26.00
2023-02-17T10:59:06.565Z,26.27
2023-02-17T11:02:31.263Z,26.82
2023-02-17T11:05:35.091Z,24.68
2023-02-17T11:08:44.897Z,23.15
2023-02-17T11:11:58.702Z,24.93
2023-02-17T11:15:05.177Z,25.62
2023-02-17T11:18:20.612Z,25.12
2023-02-17T11:21:23.512Z,24.98
2023-02-17T11:24:28.941Z,26.94
2023-02-17T11:27:31.726Z,27.26
2023-02-17T11:30:36.110Z,27.33
2023-02-17T11:33:40.668Z,26.85
2023-02-17T11:36:49.204Z,24.48
2023-02-17T11:39:54.125Z,27.75
2023-02-17T11:43:02.707Z,29.05
2023-02-17T11:46:24.101Z,28.81
2023-02-17T11:49:56.258Z,27.31
2023-02-17T11:53:08.668Z,26.42
2023-02-17T11:56:17.752Z,26.09
2023-02-17T11:59:23.828Z,27.31
2023-02-17T12:02:40.301Z,26.32
2023-02-17T12:06:24.443Z,27.17
2023-02-17T12:09:27.512Z,25.40
2023-02-17T12:12:49.235Z,26.12
2023-02-17T12:16:10.706Z,26.02
2023-02-17T12:19:25.715Z,25.96
2023-02-17T12:22:41.960Z,25.95
2023-02-17T12:26:08.451Z,23.96
2023-02-17T12:29:54.137Z,24.52
2023-02-17T12:33:33.860Z,25.06
2023-02-17T12:36:39.626Z,25.92
2023-02-17T12:39:48.522Z,26.49
2023-02-17T12:43:06.197Z,24.95
2023-02-17T12:46:15.361Z,26.80
2023-02-17T12:49:32.285Z,26.04
2023-02-17T12:52:40.718Z,26.18
2023-02-17T12:55:50.731Z,24.89
2023-02-17T12:58:56.659Z,26.76
2023-02-17T13:02:07.571Z,24.95
2023-02-17T13:05:28.309Z,26.98
2023-02-17T13:08:42.842Z,27.65
2023-02-17T13:11:46.055Z,28.12
2023-02-17T13:14:50.606Z,27.52
2023-02-17T13:18:21.481Z,26.16
2023-02-17T13:21:27.690Z,26.19
2023-02-17T13:24:34.979Z,25.39
2023-02-17T13:27:39.965Z,25.21
2023-02-17T13:30:45.652Z,25.16
2023-02-17T13:33:54.602Z,26.62
2023-02-17T13:37:03.437Z,27.16
2023-02-17T13:40:22.686Z,26.43
2023-02-17T13:43:25.882Z,26.51
2023-02-17T13:46:31.139Z,26.06
2023-02-17T13:49:35.406Z,28.70
2023-02-17T13:52:38.460Z,28.33
2023-02-17T13:55:41.962Z,28.46
2023-02-17T13:58:45.065Z,29.36
2023-02-17T14:01:48.187Z,29.13
2023-02-17T14:04:53.895Z,28.22
2023-02-17T14:08:04.626Z,28.67
2023-02-17T14:11:18.602Z,29.09
2023-02-17T14:14:25.149Z,29.88
2023-02-17T14:17:32.722Z,31.10
2023-02-17T14:20:36.909Z,30.11
2023-02-17T14:23:42.890Z,30.89
2023-02-17T14:26:49.772Z,29.33
2023-02-17T14:29:52.626Z,31.29
2023-02-17T14:33:22.951Z,34.57
2023-02-17T14:36:38.078Z,34.30
2023-02-17T14:39:44.421Z,34.49
2023-02-17T14:42:47.831Z,34.26
2023-02-17T14:45:51.092Z,34.24
2023-02-17T14:48:54.910Z,34.62
2023-02-17T14:51:58.129Z,34.49
2023-02-17T14:55:01.158Z,36.45
2023-02-17T14:58:04.120Z,38.43
2023-02-17T15:01:07.586Z,39.67
2023-02-17T15:04:10.444Z,40.91
2023-02-17T15:07:16.542Z,41.80
2023-02-17T15:10:27.279Z,42.89
2023-02-17T15:13:31.902Z,43.24
2023-02-17T15:16:35.168Z,43.83
2023-02-17T15:19:38.323Z,43.45
2023-02-17T15:22:42.276Z,43.59
2023-02-17T15:25:45.880Z,44.08
2023-02-17T15:28:48.950Z,44.51
2023-02-17T15:31:53.565Z,44.79
2023-02-17T15:34:56.982Z,45.40
2023-02-17T15:37:59.851Z,45.82
2023-02-17T15:41:04.835Z,46.31
2023-02-17T15:44:15.542Z,46.21
2023-02-17T15:47:20.776Z,46.74
2023-02-17T15:50:24.169Z,47.25
2023-02-17T15:53:32.492Z,47.50
2023-02-17T15:56:44.967Z,47.48
2023-02-17T15:59:48.364Z,47.53
2023-02-17T16:02:52.124Z,48.16
2023-02-17T16:05:55.072Z,49.05
2023-02-17T16:09:01.266Z,50.30
2023-02-17T16:12:04.534Z,50.90
2023-02-17T16:15:11.741Z,51.26
2023-02-17T16:18:24.828Z,51.78
2023-02-17T16:21:28.214Z,52.98
2023-02-17T16:24:31.223Z,53.09
2023-02-17T16:27:34.075Z,53.26
2023-02-17T16:30:37.153Z,52.79
2023-02-17T16:33:40.146Z,52.51
2023-02-17T16:36:43.348Z,53.15
2023-02-17T16:39:46.743Z,54.40
2023-02-17T16:42:50.322Z,55.44
2023-02-17T16:46:02.886Z,56.59
2023-02-17T16:49:24.524Z,57.35
2023-02-17T16:52:28.150Z,58.00
2023-02-17T16:55:34.860Z,59.39
2023-02-17T16:58:37.944Z,59.18
2023-02-17T17:01:41.116Z,60.11
2023-02-17T17:04:44.271Z,60.95
2023-02-17T17:07:51.293Z,62.15
2023-02-17T17:10:54.263Z,62.50
2023-02-17T17:13:57.529Z,62.05
2023-02-17T17:17:02.273Z,61.27
2023-02-17T17:20:05.772Z,61.31
2023-02-17T17:23:13.630Z,61.26
2023-02-17T17:26:35.892Z,61.42
2023-02-17T17:29:38.925Z,61.81
2023-02-17T17:32:42.315Z,61.91
2023-02-17T17:35:45.475Z,62.04
2023-02-17T17:38:48.368Z,61.90
2023-02-17T17:41:52.705Z,61.92
2023-02-17T17:44:55.663Z,62.86
2023-02-17T17:47:58.953Z,62.72
2023-02-17T17:51:01.913Z,62.27
2023-02-17T17:54:07.034Z,62.02
2023-02-17T17:57:10.826Z,62.82
2023-02-17T18:00:18.308Z,63.09
2023-02-17T18:03:21.154Z,62.87
2023-02-17T18:06:35.588Z,62.85
2023-02-17T18:09:39.769Z,63.01
2023-02-17T18:12:45.803Z,63.78
2023-02-17T18:15:49.434Z,63.83
2023-02-17T18:18:52.960Z,64.06
2023-02-17T18:21:56.667Z,64.44
2023-02-17T18:24:59.678Z,65.14
2023-02-17T18:28:02.459Z,65.39
2023-02-17T18:31:10.512Z,65.61
2023-02-17T18:34:14.445Z,65.83
2023-02-17T18:37:17.546Z,65.96
2023-02-17T18:40:22.225Z,66.00
2023-02-17T18:43:25.266Z,66.14
2023-02-17T18:46:28.926Z,65.99
2023-02-17T18:49:32.261Z,66.43
2023-02-17T18:52:38.078Z,66.89
2023-02-17T18:55:41.104Z,67.26
2023-02-17T18:58:44.320Z,67.22
2023-02-17T19:01:47.497Z,67.71
2023-02-17T19:04:55.195Z,67.04
2023-02-17T19:07:58.822Z,66.21
2023-02-17T19:11:03.251Z,66.32
2023-02-17T19:14:06.577Z,66.74
2023-02-17T19:17:12.002Z,67.04
2023-02-17T19:20:17.271Z,67.17
2023-02-17T19:23:20.330Z,67.63
2023-02-17T19:26:23.283Z,67.65
2023-02-17T19:29:26.547Z,67.95
2023-02-17T19:32:29.663Z,68.21
2023-02-17T19:35:32.698Z,68.83
2023-02-17T19:38:36.010Z,68.73
2023-02-17T19:41:39.168Z,68.17
2023-02-17T19:44:42.564Z,67.27
2023-02-17T19:47:46.457Z,66.31
2023-02-17T19:50:50.239Z,65.77
2023-02-17T19:53:53.270Z,65.73
2023-02-17T19:56:56.000Z,65.23
2023-02-17T19:59:59.213Z,65.11
2023-02-17T20:03:02.296Z,64.95
2023-02-17T20:06:11.645Z,64.78
2023-02-17T20:09:19.918Z,64.61
2023-02-17T20:12:23.097Z,64.20
2023-02-17T20:15:26.325Z,64.63
2023-02-17T20:18:29.897Z,64.08
2023-02-17T20:21:36.678Z,63.72
2023-02-17T20:24:42.194Z,63.56
2023-02-17T20:27:45.678Z,63.66
2023-02-17T20:30:49.170Z,63.33
2023-02-17T20:33:53.043Z,63.23
2023-02-17T20:36:57.222Z,63.42
2023-02-17T20:40:00.870Z,63.38
2023-02-17T20:43:05.249Z,63.63
2023-02-17T20:46:13.283Z,63.60
2023-02-17T20:49:16.193Z,63.60
2023-02-17T20:52:19.361Z,63.51
2023-02-17T20:55:22.218Z,62.72
2023-02-17T20:58:25.432Z,62.87
2023-02-17T21:01:29.069Z,62.49
2023-02-17T21:04:32.267Z,62.46
2023-02-17T21:07:35.321Z,62.61
2023-02-17T21:10:40.151Z,62.58
2023-02-17T21:13:43.229Z,63.06
2023-02-17T21:16:47.948Z,62.67
2023-02-17T21:19:51.315Z,62.05
2023-02-17T21:22:54.563Z,61.89
2023-02-17T21:25:57.490Z,61.82
2023-02-17T21:29:00.594Z,61.86
2023-02-17T21:32:04.972Z,61.96
2023-02-17T21:35:11.505Z,61.60
2023-02-17T21:38:17.003Z,61.34
2023-02-17T21:41:23.030Z,61.30
2023-02-17T21:44:44.591Z,61.02
2023-02-17T21:47:47.469Z,60.71
2023-02-17T21:50:50.215Z,60.34
2023-02-17T21:53:53.857Z,60.33
2023-02-17T21:56:56.765Z,60.67
2023-02-17T21:59:59.550Z,60.57
2023-02-17T22:03:02.365Z,59.93
2023-02-17T22:06:17.548Z,60.01
2023-02-17T22:09:20.656Z,59.97
2023-02-17T22:12:23.516Z,59.35
2023-02-17T22:15:26.548Z,59.16
2023-02-17T22:18:29.652Z,58.49
2023-02-17T22:21:32.595Z,58.42
2023-02-17T22:24:35.469Z,58.90
2023-02-17T22:27:38.168Z,58.71
2023-02-17T22:30:41.011Z,57.97
2023-02-17T22:33:44.185Z,58.50
2023-02-17T22:36:46.998Z,58.69
2023-02-17T22:39:56.579Z,58.23
2023-02-17T22:42:59.740Z,57.75
2023-02-17T22:46:03.154Z,58.15
2023-02-17T22:49:06.258Z,58.02
2023-02-17T22:52:09.517Z,57.79
2023-02-17T22:55:12.250Z,58.45
2023-02-17T22:58:15.181Z,58.10
2023-02-17T23:01:21.024Z,58.09
2023-02-17T23:04:23.992Z,58.66
2023-02-17T23:07:26.806Z,58.29
2023-02-17T23:10:29.965Z,58.19
2023-02-17T23:13:34.313Z,58.32
2023-02-17T23:16:37.315Z,58.11
2023-02-17T23:19:42.380Z,58.04
2023-02-17T23:22:45.457Z,57.77
2023-02-17T23:25:54.367Z,58.01
2023-02-17T23:28:57.336Z,57.91
2023-02-17T23:32:00.714Z,57.41
2023-02-17T23:35:04.389Z,57.50
2023-02-17T23:38:08.492Z,57.35
2023-02-17T23:41:11.471Z,57.42
2023-02-17T23:44:15.885Z,57.51
2023-02-17T23:47:18.679Z,57.04
2023-02-17T23:50:21.638Z,57.29
2023-02-17T23:53:25.025Z,57.56
2023-02-17T23:56:33.515Z,56.94
2023-02-17T23:59:37.791Z,57.07
